Time;durP1;ratioP1;P1;durP2;ratioP2;P2;SDS_P1;SDS_P2;PMS_P1;PMS_P2;Temp;Humidity;BMP_temperature;BMP_pressure;BME280_temperature;BME280_humidity;BME280_pressure;Samples;Min_cycle;Max_cycle;Signal;HPM_P1;HPM_P2
2022/04/29 00:00:53;;;;;;;;;14.20;11.20;;;;;9.15;58.17;101166.50;5094672;28;8841;-63
2022/04/29 00:03:22;;;;;;;;;15.20;12.20;;;;;9.15;58.51;101170.03;5094484;28;8831;-64
2022/04/29 00:05:50;;;;;;;;;8.00;6.40;;;;;9.16;58.41;101168.22;5097331;28;8835;-63
2022/04/29 00:08:18;;;;;;;;;13.20;12.60;;;;;9.16;58.54;101163.78;5096826;28;8885;-63
2022/04/29 00:10:46;;;;;;;;;11.00;10.40;;;;;9.17;58.49;101167.28;5097035;28;8840;-63
2022/04/29 00:13:14;;;;;;;;;12.80;10.40;;;;;9.18;58.33;101169.88;5096654;28;8827;-62
2022/04/29 00:15:41;;;;;;;;;13.00;13.00;;;;;9.16;58.51;101174.41;5096589;28;8849;-63
2022/04/29 00:18:09;;;;;;;;;9.00;6.80;;;;;9.15;58.38;101167.38;5097092;28;8870;-62
2022/04/29 00:20:38;;;;;;;;;12.20;10.40;;;;;9.15;58.42;101167.38;5096613;28;8859;-62
2022/04/29 00:23:06;;;;;;;;;13.40;12.00;;;;;9.14;58.61;101165.69;5096947;28;8836;-62
2022/04/29 00:25:33;;;;;;;;;12.60;12.20;;;;;9.14;58.67;101160.34;5097096;28;9641;-62
2022/04/29 00:28:03;;;;;;;;;9.20;7.40;;;;;9.15;58.65;101156.75;5096094;28;8892;-62
2022/04/29 00:30:31;;;;;;;;;11.00;10.40;;;;;9.16;58.72;101155.81;5096347;28;8827;-62
2022/04/29 00:32:59;;;;;;;;;13.40;10.00;;;;;9.18;58.43;101155.75;5096264;28;8819;-62
2022/04/29 00:35:26;;;;;;;;;10.40;10.00;;;;;9.18;58.22;101159.22;5097051;28;8832;-62
2022/04/29 00:37:54;;;;;;;;;14.20;13.20;;;;;9.21;58.16;101164.41;5095582;28;9513;-63
2022/04/29 00:40:22;;;;;;;;;17.80;16.20;;;;;9.22;58.47;101159.94;5095885;28;9500;-62
2022/04/29 00:42:50;;;;;;;;;13.60;11.80;;;;;9.21;58.82;101159.09;5095848;28;8844;-61
2022/04/29 00:45:17;;;;;;;;;16.60;14.60;;;;;9.18;58.59;101156.56;5096357;28;8831;-62
2022/04/29 00:47:45;;;;;;;;;11.20;11.20;;;;;9.17;58.85;101165.50;5096548;28;8827;-62
2022/04/29 00:50:13;;;;;;;;;12.00;12.00;;;;;9.14;58.91;101170.13;5096498;28;8963;-62
2022/04/29 00:52:40;;;;;;;;;15.60;12.40;;;;;9.11;58.86;101165.81;5096310;28;9386;-63
2022/04/29 00:55:08;;;;;;;;;9.80;9.60;;;;;9.10;59.29;101164.09;5096124;28;8974;-62
2022/04/29 00:57:36;;;;;;;;;9.00;7.00;;;;;9.07;58.91;101161.63;5096023;28;8840;-62
2022/04/29 01:00:04;;;;;;;;;13.40;13.00;;;;;9.05;58.93;101158.19;5095792;28;8835;-62
2022/04/29 01:02:31;;;;;;;;;14.00;12.20;;;;;9.04;58.90;101158.28;5095864;28;8838;-62
2022/04/29 01:04:59;;;;;;;;;13.00;12.40;;;;;9.01;58.78;101158.44;5096363;28;8840;-63
2022/04/29 01:07:27;;;;;;;;;15.00;15.00;;;;;8.99;58.81;101155.88;5095285;28;9490;-62
2022/04/29 01:09:55;;;;;;;;;11.20;11.20;;;;;8.97;59.23;101160.38;5095522;28;8960;-61
2022/04/29 01:12:23;;;;;;;;;10.80;10.80;;;;;8.95;58.96;101153.47;5095617;28;8832;-63
2022/04/29 01:14:50;;;;;;;;;13.00;12.80;;;;;8.93;58.93;101156.19;5095659;28;8866;-62
2022/04/29 01:17:18;;;;;;;;;12.60;11.20;;;;;8.92;59.31;101151.81;5095197;28;8843;-62
2022/04/29 01:19:46;;;;;;;;;12.60;10.00;;;;;8.90;59.53;101150.19;5095685;28;8831;-63
2022/04/29 01:22:14;;;;;;;;;11.60;11.60;;;;;8.86;59.30;101143.31;5095801;28;8828;-63
2022/04/29 01:24:41;;;;;;;;;10.00;10.00;;;;;8.81;59.32;101140.06;5095525;28;8920;-63
2022/04/29 01:27:10;;;;;;;;;12.40;12.40;;;;;8.75;59.69;101132.41;5095771;28;8812;-62
2022/04/29 01:29:37;;;;;;;;;3.60;3.60;;;;;8.67;60.04;101134.63;5095881;28;8832;-62
2022/04/29 01:32:06;;;;;;;;;10.80;10.80;;;;;8.54;60.57;101131.75;5094799;28;9182;-62
2022/04/29 01:34:33;;;;;;;;;12.00;9.00;;;;;8.42;60.42;101137.69;5093098;28;8827;-61
2022/04/29 01:37:01;;;;;;;;;10.60;9.00;;;;;8.28;60.71;101134.88;5095232;28;8867;-61
2022/04/29 01:39:29;;;;;;;;;9.60;9.60;;;;;8.15;60.77;101128.44;5095293;28;8966;-62
2022/04/29 01:41:57;;;;;;;;;10.80;10.00;;;;;8.03;61.18;101133.50;5095601;28;8819;-61
2022/04/29 01:44:24;;;;;;;;;9.80;9.20;;;;;7.90;61.61;101138.56;5095290;28;8831;-61
2022/04/29 01:46:52;;;;;;;;;12.00;12.00;;;;;7.81;61.66;101131.09;5095714;28;8988;-62
2022/04/29 01:49:20;;;;;;;;;9.40;8.60;;;;;7.75;61.57;101134.03;5095236;28;8835;-61
2022/04/29 01:51:48;;;;;;;;;11.60;9.60;;;;;7.71;62.00;101126.31;5095550;28;8869;-63
2022/04/29 01:54:16;;;;;;;;;11.20;10.00;;;;;7.68;62.25;101128.25;5093941;28;8819;-62
2022/04/29 01:56:47;;;;;;;;;14.80;14.20;;;;;7.66;61.63;101124.81;5094361;28;8846;-61
2022/04/29 01:59:15;;;;;;;;;11.60;10.00;;;;;7.65;61.91;101125.75;5095063;28;8859;-62
2022/04/29 02:01:43;;;;;;;;;15.00;14.20;;;;;7.64;61.74;101122.22;5095313;28;8835;-61
2022/04/29 02:04:10;;;;;;;;;13.40;12.80;;;;;7.63;62.07;101122.28;5094799;28;8824;-62
2022/04/29 02:06:38;;;;;;;;;13.00;12.60;;;;;7.64;61.93;101124.88;5094862;28;8827;-61
2022/04/29 02:09:06;;;;;;;;;10.80;10.80;;;;;7.62;61.87;101118.81;5094900;28;9509;-62
2022/04/29 02:11:34;;;;;;;;;18.60;17.60;;;;;7.61;62.06;101129.47;5094441;28;8848;-62
2022/04/29 02:14:02;;;;;;;;;12.40;12.20;;;;;7.59;62.13;101121.59;5095179;28;8832;-62
2022/04/29 02:16:30;;;;;;;;;20.40;16.80;;;;;7.58;61.71;101119.03;5094877;28;8831;-62
2022/04/29 02:18:58;;;;;;;;;10.80;10.60;;;;;7.56;61.75;101119.09;5094715;28;8843;-62
2022/04/29 02:21:25;;;;;;;;;12.00;12.00;;;;;7.54;61.74;101113.03;5095283;28;8887;-62
2022/04/29 02:23:53;;;;;;;;;10.60;10.20;;;;;7.54;62.16;101106.84;5094722;28;8823;-63
2022/04/29 02:26:21;;;;;;;;;11.20;10.80;;;;;7.54;61.94;101112.16;5094580;28;9490;-63
2022/04/29 02:28:49;;;;;;;;;15.00;12.60;;;;;7.54;62.03;101109.50;5094525;28;8843;-63
2022/04/29 02:31:16;;;;;;;;;18.40;15.60;;;;;7.53;61.91;101115.75;5094725;28;8831;-62
2022/04/29 02:33:44;;;;;;;;;14.40;12.20;;;;;7.52;61.59;101112.25;5094741;28;8966;-63
2022/04/29 02:36:12;;;;;;;;;12.80;9.00;;;;;7.50;61.73;101111.44;5094729;28;8831;-62
2022/04/29 02:38:40;;;;;;;;;12.20;11.60;;;;;7.51;61.81;101107.00;5094216;28;8843;-62
2022/04/29 02:41:07;;;;;;;;;10.20;8.60;;;;;7.51;61.98;101107.00;5094897;28;8869;-64
2022/04/29 02:43:35;;;;;;;;;10.80;7.40;;;;;7.51;62.23;101102.56;5095183;28;8845;-62
2022/04/29 02:46:03;;;;;;;;;12.60;12.00;;;;;7.52;61.88;101108.72;5094801;28;8937;-62
2022/04/29 02:48:32;;;;;;;;;14.60;13.00;;;;;7.54;61.56;101101.56;5093889;28;8824;-63
2022/04/29 02:51:00;;;;;;;;;14.80;13.40;;;;;7.55;61.67;101100.63;5091885;28;8851;-62
2022/04/29 02:53:28;;;;;;;;;12.60;12.20;;;;;7.55;61.57;101101.47;5091894;28;8835;-64
2022/04/29 02:56:05;;;;;;;;;14.20;13.20;;;;;7.56;61.84;101099.66;5094472;28;8827;-62
2022/04/29 02:58:32;;;;;;;;;14.20;13.00;;;;;7.53;61.64;101092.75;5094543;28;8993;-63
2022/04/29 03:01:00;;;;;;;;;16.80;13.80;;;;;7.51;61.43;101099.91;5097006;28;8816;-62
2022/04/29 03:03:28;;;;;;;;;16.80;14.60;;;;;7.50;62.34;101090.25;5098335;28;8824;-62
2022/04/29 03:05:55;;;;;;;;;10.00;9.80;;;;;7.49;61.88;101093.00;5098379;28;8912;-62
2022/04/29 03:08:23;;;;;;;;;10.40;10.00;;;;;7.48;61.99;101094.75;5098363;28;8851;-62
2022/04/29 03:10:51;;;;;;;;;13.60;10.80;;;;;7.47;62.17;101090.41;5098053;28;8960;-64
2022/04/29 03:13:19;;;;;;;;;15.60;12.80;;;;;7.46;62.15;101090.47;5097937;28;8847;-62
2022/04/29 03:15:46;;;;;;;;;7.80;6.80;;;;;7.47;62.13;101086.88;5098251;28;8835;-62
2022/04/29 03:18:20;;;;;;;;;16.80;15.00;;;;;7.46;61.48;101082.50;5097761;28;8828;-62
2022/04/29 03:20:48;;;;;;;;;15.00;13.60;;;;;7.46;61.95;101080.75;5098344;28;9568;-62
2022/04/29 03:23:16;;;;;;;;;18.60;17.20;;;;;7.46;61.88;101094.00;5097885;28;8812;-62
2022/04/29 03:25:44;;;;;;;;;22.80;17.20;;;;;7.46;62.00;101087.81;5098277;28;8831;-63
2022/04/29 03:28:12;;;;;;;;;15.00;14.00;;;;;7.46;61.71;101079.88;5097538;28;8831;-62
2022/04/29 03:30:39;;;;;;;;;15.00;15.00;;;;;7.46;61.90;101085.16;5097740;28;8839;-62
2022/04/29 03:33:07;;;;;;;;;15.00;14.20;;;;;7.45;62.14;101083.44;5097510;28;8839;-61
2022/04/29 03:35:35;;;;;;;;;14.60;14.60;;;;;7.44;62.07;101084.38;5097520;28;8846;-62
2022/04/29 03:38:03;;;;;;;;;16.40;15.00;;;;;7.44;62.30;101084.38;5097209;28;8854;-62
2022/04/29 03:40:30;;;;;;;;;13.20;13.20;;;;;7.43;62.10;101080.88;5097568;28;8832;-62
2022/04/29 03:42:58;;;;;;;;;10.80;10.40;;;;;7.43;62.31;101086.16;5097400;28;8849;-63
2022/04/29 03:45:26;;;;;;;;;15.00;12.20;;;;;7.43;61.94;101090.63;5096873;28;9650;-62
2022/04/29 03:47:54;;;;;;;;;12.80;12.80;;;;;7.41;62.05;101088.03;5097411;28;8815;-62
2022/04/29 03:50:23;;;;;;;;;15.00;14.20;;;;;7.40;61.61;101091.63;5097141;28;8861;-62
2022/04/29 03:52:51;;;;;;;;;13.40;13.00;;;;;7.40;61.85;101088.97;5097394;28;8848;-62
2022/04/29 03:55:18;;;;;;;;;15.60;15.00;;;;;7.41;62.29;101089.81;5096645;28;9532;-62
2022/04/29 03:57:46;;;;;;;;;12.80;10.80;;;;;7.39;62.06;101097.88;5094810;28;8812;-62
2022/04/29 04:00:14;;;;;;;;;14.60;12.80;;;;;7.37;62.20;101093.56;5096646;28;9563;-64
2022/04/29 04:02:42;;;;;;;;;13.00;11.20;;;;;7.35;62.46;101095.44;5096600;28;9508;-62
2022/04/29 04:05:10;;;;;;;;;14.40;14.00;;;;;7.33;62.69;101094.63;5097049;28;8958;-64
2022/04/29 04:07:38;;;;;;;;;12.40;10.00;;;;;7.30;62.32;101098.31;5096932;28;8832;-62
2022/04/29 04:10:05;;;;;;;;;15.00;13.00;;;;;7.29;62.10;101087.78;5094438;28;9486;-62
2022/04/29 04:12:33;;;;;;;;;18.20;17.60;;;;;7.27;62.39;101092.31;5094190;28;9497;-62
2022/04/29 04:15:01;;;;;;;;;16.00;15.00;;;;;7.25;62.58;101092.38;5094882;28;8819;-62
2022/04/29 04:17:29;;;;;;;;;16.40;14.20;;;;;7.26;61.93;101093.19;5094633;28;8847;-62
2022/04/29 04:19:56;;;;;;;;;18.20;15.60;;;;;7.25;62.43;101092.38;5093735;28;8860;-63
2022/04/29 04:22:24;;;;;;;;;12.20;10.00;;;;;7.24;62.43;101097.72;5094058;28;8827;-62
2022/04/29 04:24:52;;;;;;;;;12.60;12.60;;;;;7.25;62.39;101094.13;5093678;28;8839;-64
2022/04/29 04:27:20;;;;;;;;;18.20;16.00;;;;;7.24;62.27;101090.66;5093366;28;8835;-62
2022/04/29 04:29:47;;;;;;;;;12.20;12.20;;;;;7.25;62.39;101099.44;5092213;28;8832;-63
2022/04/29 04:32:15;;;;;;;;;15.80;15.40;;;;;7.25;62.21;101094.13;5094229;28;8832;-64
2022/04/29 04:34:52;;;;;;;;;12.40;11.60;;;;;7.27;62.69;101097.59;5095818;28;8888;-63
2022/04/29 04:37:20;;;;;;;;;7.00;6.60;;;;;7.27;62.26;101098.44;5095310;28;8844;-63
2022/04/29 04:39:47;;;;;;;;;11.40;11.00;;;;;7.28;62.47;101099.31;5094795;28;8832;-62
2022/04/29 04:42:15;;;;;;;;;12.00;12.00;;;;;7.26;62.67;101096.72;5095521;28;8819;-62
2022/04/29 04:44:43;;;;;;;;;12.20;12.00;;;;;7.27;62.49;101100.25;5095140;28;8969;-62
2022/04/29 04:47:11;;;;;;;;;12.80;12.80;;;;;7.29;62.34;101095.72;5095609;28;8913;-62
2022/04/29 04:49:38;;;;;;;;;13.00;11.80;;;;;7.32;62.44;101095.56;5095882;28;8831;-61
2022/04/29 04:52:06;;;;;;;;;7.00;7.00;;;;;7.36;62.75;101108.59;5095656;28;8819;-61
2022/04/29 04:54:34;;;;;;;;;11.60;10.00;;;;;7.40;62.10;101104.00;5095609;28;8835;-61
2022/04/29 04:57:02;;;;;;;;;11.20;10.00;;;;;7.40;62.12;101099.56;5095146;28;8841;-61
2022/04/29 04:59:30;;;;;;;;;9.20;9.20;;;;;7.40;62.50;101104.88;5095140;28;8828;-64
2022/04/29 05:01:57;;;;;;;;;12.60;12.40;;;;;7.39;62.51;101097.00;5095105;28;8832;-63
2022/04/29 05:04:25;;;;;;;;;8.60;8.60;;;;;7.35;62.50;101092.78;5095649;28;8838;-62
2022/04/29 05:06:53;;;;;;;;;15.60;15.20;;;;;7.34;62.64;101091.06;5094973;28;8823;-62
2022/04/29 05:09:21;;;;;;;;;12.00;10.00;;;;;7.36;62.54;101092.69;5094021;28;8824;-64
2022/04/29 05:11:48;;;;;;;;;16.00;16.00;;;;;7.41;62.29;101090.69;5093519;28;8835;-63
2022/04/29 05:14:29;;;;;;;;;16.40;14.80;;;;;7.47;62.23;101089.53;5094017;28;8878;-62
2022/04/29 05:16:57;;;;;;;;;16.00;13.80;;;;;7.52;62.07;101088.41;5092839;28;8832;-62
2022/04/29 05:19:25;;;;;;;;;12.20;12.20;;;;;7.58;62.01;101095.19;5095263;28;8843;-64
2022/04/29 05:21:52;;;;;;;;;12.80;10.40;;;;;7.66;61.83;101090.34;5094662;28;8869;-64
2022/04/29 05:24:20;;;;;;;;;16.40;14.20;;;;;7.75;61.11;101088.13;5093947;28;9540;-62
2022/04/29 05:26:54;;;;;;;;;19.80;15.60;;;;;7.86;61.58;101086.66;5094554;28;8827;-63
2022/04/29 05:29:22;;;;;;;;;11.80;9.40;;;;;7.98;61.24;101086.00;5094981;28;8828;-63
2022/04/29 05:31:49;;;;;;;;;9.80;9.80;;;;;8.12;60.93;101083.50;5094777;28;8945;-62
2022/04/29 05:34:17;;;;;;;;;14.80;13.20;;;;;8.30;60.57;101087.06;5095215;28;8882;-64
2022/04/29 05:36:45;;;;;;;;;16.80;15.60;;;;;8.50;60.36;101077.09;5092985;28;8839;-64
2022/04/29 05:42:18;;;;;;;;;16.80;16.80;;;;;8.92;59.85;101072.13;5091650;28;8882;-62
2022/04/29 05:44:46;;;;;;;;;19.00;15.80;;;;;9.07;59.48;101073.09;5090778;28;8835;-63
2022/04/29 05:47:14;;;;;;;;;11.20;10.00;;;;;9.13;59.28;101076.25;5090380;28;8827;-63
2022/04/29 05:49:41;;;;;;;;;13.80;12.80;;;;;9.18;59.52;101079.50;5092187;28;8832;-62
2022/04/29 05:52:10;;;;;;;;;13.80;12.20;;;;;9.22;59.54;101080.19;5091786;28;8837;-62
2022/04/29 05:54:37;;;;;;;;;14.60;13.80;;;;;9.29;59.63;101078.91;5093067;28;8841;-62
2022/04/29 05:57:11;;;;;;;;;9.20;9.00;;;;;9.32;59.94;101076.94;5092640;28;8855;-62
2022/04/29 05:59:39;;;;;;;;;14.20;13.00;;;;;9.32;59.57;101070.75;5091611;28;8836;-62
2022/04/29 06:02:08;;;;;;;;;18.00;14.00;;;;;9.33;59.53;101076.00;5091983;28;8892;-62
2022/04/29 06:04:36;;;;;;;;;18.40;16.00;;;;;9.33;59.76;101075.16;5092569;28;8831;-61
2022/04/29 06:07:04;;;;;;;;;9.80;9.60;;;;;9.33;60.31;101083.97;5091418;28;8885;-62
2022/04/29 06:09:31;;;;;;;;;15.80;12.40;;;;;9.33;60.00;101086.63;5090745;28;8842;-62
2022/04/29 06:11:59;;;;;;;;;11.60;11.60;;;;;9.37;60.13;101088.19;5091288;28;8857;-62
2022/04/29 06:14:28;;;;;;;;;13.80;12.80;;;;;9.40;60.34;101072.06;5091511;28;8850;-61
2022/04/29 06:16:55;;;;;;;;;17.00;14.60;;;;;9.39;60.04;101070.34;5090886;28;8939;-62
2022/04/29 06:19:24;;;;;;;;;14.60;13.60;;;;;9.40;60.00;101077.38;5092657;28;8920;-62
2022/04/29 06:21:51;;;;;;;;;14.60;13.40;;;;;9.41;60.26;101084.41;5092472;28;9234;-62
2022/04/29 06:24:19;;;;;;;;;24.80;20.20;;;;;9.39;60.54;101080.09;5092137;28;8850;-62
2022/04/29 06:26:47;;;;;;;;;14.40;13.40;;;;;9.40;60.33;101082.69;5092860;28;8846;-62
2022/04/29 06:29:15;;;;;;;;;15.80;15.00;;;;;9.40;60.43;101092.44;5092804;28;8831;-61
2022/04/29 06:31:43;;;;;;;;;15.00;15.00;;;;;9.42;60.14;101091.41;5091687;28;9552;-62
2022/04/29 06:34:11;;;;;;;;;7.80;7.80;;;;;9.47;60.27;101092.03;5092037;28;8843;-62
2022/04/29 06:36:38;;;;;;;;;23.20;21.00;;;;;9.52;59.90;101087.31;5096283;28;8965;-62
2022/04/29 06:39:06;;;;;;;;;12.00;10.00;;;;;9.58;60.38;101084.28;5096199;28;8835;-62
2022/04/29 06:41:35;;;;;;;;;15.40;13.80;;;;;9.66;60.13;101086.53;5095915;28;8929;-62
2022/04/29 06:44:02;;;;;;;;;8.60;8.20;;;;;9.74;60.07;101081.63;5095012;28;8832;-62
2022/04/29 06:46:30;;;;;;;;;12.40;12.40;;;;;9.83;59.67;101083.72;5092914;28;8838;-62
2022/04/29 06:48:58;;;;;;;;;11.20;11.20;;;;;10.01;59.41;101086.16;5092646;28;9235;-61
2022/04/29 06:51:26;;;;;;;;;10.40;9.20;;;;;10.24;59.33;101084.84;5092018;28;8874;-62
2022/04/29 06:53:53;;;;;;;;;9.60;9.00;;;;;10.49;59.17;101077.09;5091801;28;8865;-62
2022/04/29 06:56:21;;;;;;;;;10.00;9.60;;;;;10.71;58.36;101083.66;5090245;28;8865;-62
2022/04/29 06:58:49;;;;;;;;;8.60;8.60;;;;;10.88;58.12;101079.94;5090355;28;8981;-62
2022/04/29 07:01:18;;;;;;;;;13.50;9.75;;;;;11.05;57.97;101083.25;5090682;28;8843;-62
2022/04/29 07:03:47;;;;;;;;;11.00;10.00;;;;;11.16;57.46;101086.09;5092726;28;8840;-62
2022/04/29 07:06:15;;;;;;;;;12.00;11.00;;;;;11.29;57.38;101089.69;5094516;28;8989;-62
2022/04/29 07:08:46;;;;;;;;;12.00;10.50;;;;;11.37;57.42;101087.38;5096335;28;8829;-62
2022/04/29 07:11:13;;;;;;;;;10.50;10.00;;;;;11.41;57.60;101088.91;5096389;28;8836;-62
2022/04/29 07:13:42;;;;;;;;;12.25;11.00;;;;;11.51;57.65;101086.50;5093913;28;8853;-62
2022/04/29 07:16:10;;;;;;;;;13.50;12.75;;;;;11.62;57.51;101084.88;5095462;28;8820;-62
2022/04/29 07:18:38;;;;;;;;;18.25;16.00;;;;;11.74;57.27;101085.88;5096003;28;8935;-61
2022/04/29 07:21:06;;;;;;;;;15.25;12.75;;;;;11.82;57.24;101083.56;5095939;28;8894;-62
2022/04/29 07:23:34;;;;;;;;;22.50;16.00;;;;;11.89;56.94;101093.72;5093506;28;9540;-62
2022/04/29 07:26:01;;;;;;;;;12.50;12.00;;;;;11.98;56.91;101083.28;5095326;28;8851;-62
2022/04/29 07:28:29;;;;;;;;;17.00;16.00;;;;;12.09;56.44;101080.72;5095050;28;8847;-62
2022/04/29 07:30:57;;;;;;;;;15.25;13.50;;;;;12.18;56.97;101084.59;5092223;28;8836;-63
2022/04/29 07:33:25;;;;;;;;;12.75;11.00;;;;;12.27;56.44;101081.31;5093379;28;8928;-62
2022/04/29 07:44:09;;;;;;;;;11.50;11.00;;;;;12.56;56.23;101065.00;5094927;28;8835;-62
2022/04/29 07:46:36;;;;;;;;;14.50;12.50;;;;;12.62;56.40;101055.69;5093282;28;9028;-62
2022/04/29 07:49:04;;;;;;;;;14.50;13.00;;;;;12.71;56.49;101061.25;5094356;28;8967;-62
2022/04/29 07:51:32;;;;;;;;;11.25;10.00;;;;;12.80;55.94;101054.38;5093876;28;8867;-63
2022/04/29 07:54:00;;;;;;;;;15.00;12.50;;;;;12.87;55.56;101053.84;5094241;28;8854;-62
2022/04/29 07:56:28;;;;;;;;;14.50;12.75;;;;;12.90;55.94;101056.28;5093847;28;9545;-62
2022/04/29 07:58:57;;;;;;;;;14.00;13.50;;;;;12.90;56.03;101060.78;5092951;28;8863;-62
2022/04/29 08:01:25;;;;;;;;;10.00;7.50;;;;;12.91;56.36;101065.19;5093159;28;8855;-62
2022/04/29 08:03:54;;;;;;;;;11.25;10.00;;;;;12.88;56.35;101060.91;5093808;28;8835;-62
2022/04/29 08:06:22;;;;;;;;;19.00;17.50;;;;;12.87;56.25;101055.66;5092777;28;8846;-63
2022/04/29 08:08:49;;;;;;;;;11.00;10.50;;;;;12.84;56.23;101063.91;5093257;28;8857;-62
2022/04/29 08:11:17;;;;;;;;;15.25;14.00;;;;;12.85;56.58;101073.63;5091754;28;8847;-63
2022/04/29 08:13:45;;;;;;;;;12.00;11.50;;;;;12.90;56.78;101069.66;5093460;28;8881;-62
2022/04/29 08:16:33;;;;;;;;;12.00;9.75;;;;;12.96;56.54;101068.38;5093029;28;9513;-63
2022/04/29 08:19:01;;;;;;;;;9.00;9.00;;;;;12.98;56.18;101061.13;5093143;28;8840;-62
2022/04/29 08:21:28;;;;;;;;;17.50;15.50;;;;;13.07;56.01;101050.59;5094122;28;9292;-63
2022/04/29 08:23:56;;;;;;;;;13.00;13.00;;;;;13.27;56.21;101051.84;5094876;28;8867;-63
2022/04/29 08:26:24;;;;;;;;;13.50;11.50;;;;;13.40;55.61;101055.31;5093566;28;9600;-62
2022/04/29 08:28:54;;;;;;;;;15.00;12.75;;;;;13.54;55.55;101049.81;5092592;28;8864;-62
2022/04/29 08:31:22;;;;;;;;;17.00;15.50;;;;;13.65;54.99;101047.19;5092884;28;8835;-62
2022/04/29 08:33:50;;;;;;;;;11.50;10.00;;;;;13.70;54.67;101053.06;5092633;28;8851;-62
2022/04/29 08:36:18;;;;;;;;;19.25;18.50;;;;;13.77;55.19;101047.16;5092401;28;8816;-62
2022/04/29 08:38:46;;;;;;;;;15.50;14.50;;;;;13.86;54.99;101040.22;5092244;28;8831;-62
2022/04/29 08:41:14;;;;;;;;;12.50;11.50;;;;;13.96;55.11;101038.56;5091463;28;8847;-62
2022/04/29 08:43:42;;;;;;;;;15.00;12.75;;;;;14.14;54.52;101045.19;5090636;28;8843;-63
2022/04/29 08:46:10;;;;;;;;;13.00;13.00;;;;;14.30;54.18;101054.66;5091354;28;8913;-62
2022/04/29 08:48:41;;;;;;;;;15.50;13.00;;;;;14.54;53.62;101044.72;5091962;28;9594;-63
2022/04/29 08:51:09;;;;;;;;;15.25;15.25;;;;;14.83;54.08;101031.66;5091641;28;8851;-62
2022/04/29 08:53:37;;;;;;;;;9.50;7.50;;;;;15.01;53.14;101035.59;5091398;28;8863;-62
2022/04/29 08:58:50;;;;;;;;;14.50;14.00;;;;;15.53;52.50;101036.59;5090784;28;8844;-63
2022/04/29 09:01:20;;;;;;;;;18.00;16.00;;;;;15.84;52.28;101034.91;5091441;28;8835;-62
2022/04/29 09:03:48;;;;;;;;;17.00;15.50;;;;;16.14;51.65;101017.03;5089849;28;8847;-62
2022/04/29 09:06:17;;;;;;;;;15.75;15.25;;;;;16.44;51.31;101020.66;5091854;28;8836;-63
2022/04/29 09:08:47;;;;;;;;;16.00;15.75;;;;;16.74;50.59;101018.00;5092583;28;8847;-63
2022/04/29 09:11:15;;;;;;;;;20.00;17.00;;;;;16.99;50.26;101022.91;5092094;28;8855;-61
2022/04/29 09:13:43;;;;;;;;;15.75;15.00;;;;;17.13;50.09;101019.84;5092943;28;8851;-62
2022/04/29 09:16:12;;;;;;;;;15.25;13.00;;;;;17.21;50.30;101017.31;5090661;28;8920;-64
2022/04/29 09:18:41;;;;;;;;;16.00;13.00;;;;;17.22;50.02;101024.38;5089860;28;8839;-62
2022/04/29 09:21:10;;;;;;;;;12.00;10.50;;;;;17.19;50.30;101019.28;5090289;28;9230;-62
2022/04/29 09:23:38;;;;;;;;;15.00;14.50;;;;;17.17;50.81;101021.25;5090918;28;8874;-63
2022/04/29 09:26:07;;;;;;;;;15.50;14.50;;;;;17.07;50.64;101020.38;5091150;28;8851;-63
2022/04/29 09:28:35;;;;;;;;;15.00;13.00;;;;;16.94;51.02;101021.63;5089032;28;8835;-62
2022/04/29 09:31:02;;;;;;;;;16.25;15.25;;;;;16.86;51.03;101021.44;5088421;28;8952;-63
2022/04/29 09:33:32;;;;;;;;;16.50;16.00;;;;;16.79;51.87;101020.28;5092060;28;8912;-62
2022/04/29 09:35:59;;;;;;;;;15.50;13.75;;;;;16.72;51.41;101013.72;5091437;28;8881;-62
2022/04/29 09:41:13;;;;;;;;;17.00;14.50;;;;;16.64;51.80;101006.31;5091489;28;9509;-63
2022/04/29 09:43:42;;;;;;;;;16.33;15.33;;;;;16.56;52.17;101008.00;5091219;28;8924;-63
2022/04/29 09:46:10;;;;;;;;;14.00;12.50;;;;;16.52;52.04;101007.41;5089888;28;8854;-62
2022/04/29 09:48:38;;;;;;;;;13.00;12.50;;;;;16.48;52.07;101021.25;5091265;28;8843;-63
2022/04/29 09:51:07;;;;;;;;;0.75;0.50;;;;;16.44;52.48;101015.28;5089727;28;8851;-63
2022/04/29 09:53:34;;;;;;;;;13.50;11.50;;;;;16.36;52.60;101007.00;5091023;28;8977;-63
2022/04/29 09:56:02;;;;;;;;;7.00;7.00;;;;;16.30;52.95;101014.72;5091232;28;8831;-62
2022/04/29 09:58:30;;;;;;;;;12.25;12.00;;;;;16.27;52.72;101015.84;5089885;28;8831;-63
2022/04/29 10:00:57;;;;;;;;;14.50;14.50;;;;;16.26;52.67;101011.44;5089573;28;8950;-63
2022/04/29 10:03:26;;;;;;;;;11.00;11.00;;;;;16.31;53.24;101014.59;5086377;28;8828;-63
2022/04/29 10:05:55;;;;;;;;;10.75;10.75;;;;;16.43;52.78;101018.09;5086804;28;8832;-62
2022/04/29 10:08:23;;;;;;;;;11.00;9.25;;;;;16.49;52.55;101007.66;5088239;28;8851;-63
2022/04/29 10:10:51;;;;;;;;;12.00;11.00;;;;;16.59;52.27;101010.41;5088322;28;8828;-63
2022/04/29 10:13:24;;;;;;;;;12.50;12.00;;;;;16.71;52.21;101006.66;5089105;28;8954;-63
2022/04/29 10:15:52;;;;;;;;;9.00;9.00;;;;;16.94;51.89;101003.59;5089515;28;9580;-63
2022/04/29 10:21:17;;;;;;;;;12.75;10.00;;;;;17.24;51.60;101008.94;5091396;28;8879;-62
2022/04/29 10:23:48;;;;;;;;;14.75;13.75;;;;;17.18;51.77;101014.91;5091660;28;8928;-63
2022/04/29 10:26:17;;;;;;;;;10.00;9.00;;;;;17.09;51.73;101012.16;5091046;28;8855;-63
2022/04/29 10:28:44;;;;;;;;;12.00;10.00;;;;;17.02;51.90;101017.22;5090602;28;8828;-63
2022/04/29 10:31:12;;;;;;;;;15.75;14.00;;;;;16.89;52.37;101019.34;5090602;28;8815;-63
2022/04/29 10:33:41;;;;;;;;;14.00;12.00;;;;;16.74;52.54;101018.00;5089700;28;8840;-62
2022/04/29 10:36:09;;;;;;;;;13.50;11.50;;;;;16.60;52.60;101012.09;5090479;28;8847;-63
2022/04/29 10:38:37;;;;;;;;;15.25;12.25;;;;;16.45;53.24;101018.81;5089689;28;8840;-63
2022/04/29 10:41:06;;;;;;;;;9.25;9.00;;;;;16.36;52.91;101012.38;5086719;28;8859;-63
2022/04/29 10:43:33;;;;;;;;;15.25;13.00;;;;;16.32;53.27;101010.09;5087459;28;8982;-62
2022/04/29 10:46:01;;;;;;;;;14.25;13.00;;;;;16.33;53.36;101015.31;5088542;28;8859;-63
2022/04/29 10:48:29;;;;;;;;;15.00;12.00;;;;;16.38;52.94;101014.13;5088969;28;8828;-63
2022/04/29 10:50:57;;;;;;;;;12.00;10.00;;;;;16.44;53.02;101020.66;5087333;28;8871;-63
2022/04/29 10:53:24;;;;;;;;;13.00;12.75;;;;;16.56;52.49;101014.22;5087012;28;8858;-63
2022/04/29 10:55:52;;;;;;;;;14.25;13.50;;;;;16.80;52.10;101003.97;5087958;28;9283;-63
2022/04/29 10:58:20;;;;;;;;;12.50;11.00;;;;;17.09;51.88;101004.09;5088712;28;8850;-63
2022/04/29 11:00:47;;;;;;;;;14.00;13.75;;;;;17.37;51.09;100997.94;5089129;28;8835;-63
2022/04/29 11:03:15;;;;;;;;;12.25;10.00;;;;;17.82;50.23;100994.56;5089260;28;8956;-62
2022/04/29 11:05:43;;;;;;;;;14.75;13.50;;;;;18.27;49.63;100992.97;5090683;28;8843;-63
2022/04/29 11:08:11;;;;;;;;;14.00;13.50;;;;;18.64;49.08;100993.88;5090186;28;8823;-62
2022/04/29 11:10:38;;;;;;;;;12.75;12.00;;;;;19.16;48.48;101005.84;5090838;28;8852;-63
2022/04/29 11:13:06;;;;;;;;;14.00;12.00;;;;;19.50;47.90;100990.75;5089421;28;8823;-63
2022/04/29 11:15:36;;;;;;;;;17.00;13.00;;;;;19.68;47.49;100983.50;5088357;28;8857;-63
2022/04/29 11:18:04;;;;;;;;;9.50;9.00;;;;;19.78;47.63;100987.81;5088228;28;8858;-63
2022/04/29 11:20:31;;;;;;;;;12.40;11.80;;;;;19.59;47.65;100989.81;5088420;28;8856;-63
2022/04/29 11:25:44;;;;;;;;;13.80;13.00;;;;;19.58;48.01;100986.25;5093318;28;8832;-63
2022/04/29 11:28:12;;;;;;;;;9.00;9.00;;;;;19.70;47.68;100995.84;5092004;28;8954;-63
2022/04/29 11:30:40;;;;;;;;;14.60;14.20;;;;;19.76;47.58;100999.78;5091139;28;8842;-63
2022/04/29 11:33:07;;;;;;;;;13.40;13.20;;;;;19.83;47.66;100999.03;5092467;28;8978;-63
2022/04/29 11:35:35;;;;;;;;;13.00;10.80;;;;;19.88;47.68;100995.84;5090780;28;8840;-63
2022/04/29 11:38:04;;;;;;;;;12.40;10.60;;;;;20.01;46.95;100980.91;5090202;28;8832;-63
2022/04/29 11:40:32;;;;;;;;;14.00;13.40;;;;;20.19;46.80;100984.47;5089689;28;8864;-63
2022/04/29 11:42:59;;;;;;;;;14.40;14.00;;;;;20.35;46.71;100984.59;5090335;28;8823;-62
2022/04/29 11:45:30;;;;;;;;;14.60;13.40;;;;;20.67;45.88;100983.94;5093463;28;8962;-63
2022/04/29 11:47:58;;;;;;;;;14.00;13.40;;;;;20.73;45.98;100982.28;5093608;28;8824;-63
2022/04/29 11:50:25;;;;;;;;;13.80;13.60;;;;;20.73;45.93;100984.16;5093138;28;8945;-63